Donald, Washington
Current Conditions -  °F | °C
As of 11:53 PM on Monday 20 Oct 2014 (Local Time) from KYKM Reporting Station
Clear Clear  
Wind Chill: 43°   Ceiling: Unl
Heat Index: 46°   Visibility: 7mi
Dew Point: 44°   Wind: 6mph
Humidity: 93%   Direction: 290°WNW
Pressure: 29.83"   Gusts: NA
Location:  46.4639°N, 120.412°W
Report Text: KYKM 210653Z AUTO 29005KT 7SM CLR 08/07 A2983 RMK AO2 SLP103 T00780067
Loading
Personal Weather Stations






























Interactive Weather Map
Tropical Storm Tracking
New forecast layout! Learn more

10-Day Weather Forecast

Advertisements
Track Severe Weather on mobile